createdAt,value
2022-12-08T00:01:54.768Z,13.45
2022-12-08T00:03:59.561Z,13.65
2022-12-08T00:06:21.919Z,16.35
2022-12-08T00:08:42.239Z,14.13
2022-12-08T00:10:49.446Z,15.15
2022-12-08T00:12:52.815Z,15.57
2022-12-08T00:14:55.634Z,15.32
2022-12-08T00:16:59.249Z,14.82
2022-12-08T00:19:02.136Z,14.57
2022-12-08T00:21:05.833Z,13.15
2022-12-08T00:23:08.685Z,15.15
2022-12-08T00:25:11.438Z,15.48
2022-12-08T00:27:18.093Z,14.20
2022-12-08T00:29:21.594Z,14.65
2022-12-08T00:31:24.603Z,12.02
2022-12-08T00:33:29.303Z,14.10
2022-12-08T00:35:32.331Z,13.88
2022-12-08T00:37:35.724Z,16.52
2022-12-08T00:39:39.331Z,13.63
2022-12-08T00:42:00.125Z,13.48
2022-12-08T00:44:04.544Z,12.73
2022-12-08T00:46:07.614Z,14.35
2022-12-08T00:48:10.609Z,13.48
2022-12-08T00:50:13.677Z,16.42
2022-12-08T00:52:16.714Z,16.00
2022-12-08T00:54:20.713Z,20.70
2022-12-08T00:56:24.402Z,14.70
2022-12-08T00:58:27.336Z,15.57
2022-12-08T01:00:31.592Z,14.18
2022-12-08T01:02:34.595Z,12.25
2022-12-08T01:04:37.589Z,13.85
2022-12-08T01:06:43.438Z,11.23
2022-12-08T01:08:46.226Z,14.85
2022-12-08T01:10:48.996Z,12.77
2022-12-08T01:12:51.746Z,13.45
2022-12-08T01:14:57.981Z,13.25
2022-12-08T01:17:04.919Z,12.10
2022-12-08T01:19:07.969Z,13.05
2022-12-08T01:21:10.895Z,13.57
2022-12-08T01:23:13.788Z,11.77
2022-12-08T01:25:16.679Z,12.40
2022-12-08T01:27:22.155Z,14.23
2022-12-08T01:29:24.919Z,11.93
2022-12-08T01:31:27.986Z,13.80
2022-12-08T01:33:32.950Z,14.75
2022-12-08T01:37:38.352Z,12.20
2022-12-08T01:39:41.548Z,13.63
2022-12-08T01:41:45.695Z,17.83
2022-12-08T01:43:59.347Z,14.43
2022-12-08T01:46:02.221Z,14.50
2022-12-08T01:48:09.493Z,15.55
2022-12-08T01:50:16.290Z,12.00
2022-12-08T01:52:24.345Z,18.08
2022-12-08T01:54:30.273Z,12.93
2022-12-08T01:56:38.568Z,13.00
2022-12-08T01:58:46.752Z,15.45
2022-12-08T02:00:50.267Z,14.60
2022-12-08T02:02:58.141Z,13.77
2022-12-08T02:05:01.315Z,17.50
2022-12-08T02:07:08.403Z,15.48
2022-12-08T02:09:11.929Z,16.30
2022-12-08T02:11:14.813Z,12.18
2022-12-08T02:13:20.102Z,14.30
2022-12-08T02:15:31.544Z,13.00
2022-12-08T02:17:51.068Z,11.80
2022-12-08T02:20:24.406Z,13.00
2022-12-08T02:22:38.182Z,17.95
2022-12-08T02:24:48.880Z,11.77
2022-12-08T02:27:23.871Z,13.85
2022-12-08T02:29:52.440Z,12.50
2022-12-08T02:32:06.541Z,14.27
2022-12-08T02:34:25.516Z,13.50
2022-12-08T02:36:34.068Z,13.60
2022-12-08T02:38:47.230Z,11.63
2022-12-08T02:41:01.394Z,11.88
2022-12-08T02:43:10.639Z,12.93
2022-12-08T02:45:18.404Z,15.57
2022-12-08T02:47:24.772Z,12.70
2022-12-08T02:49:31.952Z,17.85
2022-12-08T02:51:35.119Z,12.00
2022-12-08T02:53:38.221Z,15.60
2022-12-08T02:55:51.951Z,13.30
2022-12-08T02:58:17.113Z,12.90
2022-12-08T03:00:22.165Z,15.30
2022-12-08T03:02:42.618Z,14.98
2022-12-08T03:04:56.645Z,13.80
2022-12-08T03:07:06.066Z,14.32
2022-12-08T03:09:15.246Z,13.05
2022-12-08T03:11:23.217Z,15.45
2022-12-08T03:13:33.395Z,14.82
2022-12-08T03:15:37.310Z,15.07
2022-12-08T03:17:44.370Z,18.73
2022-12-08T03:19:49.199Z,14.55
2022-12-08T03:21:54.440Z,15.88
2022-12-08T03:23:58.475Z,15.10
2022-12-08T03:26:09.535Z,18.13
2022-12-08T03:28:13.037Z,15.90
2022-12-08T03:30:16.200Z,14.43
2022-12-08T03:32:25.548Z,13.27
2022-12-08T03:34:30.730Z,16.20
2022-12-08T03:36:35.056Z,15.43
2022-12-08T03:38:39.709Z,15.23
2022-12-08T03:40:43.772Z,18.13
2022-12-08T03:42:46.808Z,13.65
2022-12-08T03:44:49.739Z,14.73
2022-12-08T03:46:52.535Z,16.02
2022-12-08T03:48:56.142Z,12.60
2022-12-08T03:50:58.952Z,15.90
2022-12-08T03:53:03.146Z,14.85
2022-12-08T03:55:06.967Z,11.95
2022-12-08T03:57:09.807Z,13.00
2022-12-08T03:59:12.686Z,16.80
2022-12-08T04:01:15.556Z,12.82
2022-12-08T04:03:18.479Z,14.00
2022-12-08T04:05:21.291Z,16.48
2022-12-08T04:07:24.107Z,14.07
2022-12-08T04:09:28.214Z,12.70
2022-12-08T04:11:33.996Z,14.73
2022-12-08T04:13:37.517Z,15.85
2022-12-08T04:15:40.316Z,16.58
2022-12-08T04:17:43.204Z,15.52
2022-12-08T04:19:45.996Z,14.65
2022-12-08T04:21:49.192Z,12.77
2022-12-08T04:23:54.952Z,13.82
2022-12-08T04:26:03.458Z,15.13
2022-12-08T04:28:07.188Z,16.55
2022-12-08T04:30:10.827Z,16.15
2022-12-08T04:32:13.645Z,16.50
2022-12-08T04:34:16.494Z,14.68
2022-12-08T04:36:19.400Z,13.10
2022-12-08T04:38:22.622Z,17.30
2022-12-08T04:40:25.525Z,14.95
2022-12-08T04:42:29.661Z,11.70
2022-12-08T04:44:32.494Z,15.82
2022-12-08T04:46:40.225Z,13.57
2022-12-08T04:48:45.884Z,14.52
2022-12-08T04:50:48.773Z,14.38
2022-12-08T04:52:51.604Z,14.25
2022-12-08T04:54:54.521Z,14.30
2022-12-08T04:56:57.312Z,13.57
2022-12-08T04:59:01.496Z,14.05
2022-12-08T05:01:04.404Z,16.13
2022-12-08T05:03:07.568Z,17.85
2022-12-08T05:05:10.503Z,14.98
2022-12-08T05:07:13.320Z,13.68
2022-12-08T05:09:16.226Z,12.85
2022-12-08T05:11:19.567Z,14.18
2022-12-08T05:13:22.403Z,14.77
2022-12-08T05:15:26.716Z,14.00
2022-12-08T05:17:29.488Z,15.27
2022-12-08T05:19:32.200Z,14.18
2022-12-08T05:21:35.073Z,14.13
2022-12-08T05:23:37.929Z,15.95
2022-12-08T05:25:40.901Z,16.13
2022-12-08T05:27:43.840Z,17.02
2022-12-08T05:29:48.054Z,12.52
2022-12-08T05:31:52.282Z,13.77
2022-12-08T05:33:58.433Z,16.63
2022-12-08T05:36:05.442Z,12.82
2022-12-08T05:38:08.551Z,12.25
2022-12-08T05:40:11.704Z,13.82
2022-12-08T05:42:14.430Z,12.00
2022-12-08T05:44:17.178Z,13.25
2022-12-08T05:46:20.052Z,13.00
2022-12-08T05:48:24.237Z,10.35
2022-12-08T05:50:27.006Z,13.45
2022-12-08T05:52:31.241Z,13.50
2022-12-08T05:54:34.055Z,13.15
2022-12-08T05:56:36.889Z,14.23
2022-12-08T05:58:39.730Z,16.77
2022-12-08T06:00:43.365Z,12.07
2022-12-08T06:02:46.297Z,15.10
2022-12-08T06:04:50.569Z,12.55
2022-12-08T06:06:53.574Z,14.40
2022-12-08T06:08:56.593Z,14.50
2022-12-08T06:10:59.325Z,14.70
2022-12-08T06:13:02.141Z,18.73
2022-12-08T06:15:05.592Z,15.55
2022-12-08T06:17:08.742Z,14.57
2022-12-08T06:19:11.544Z,12.77
2022-12-08T06:21:17.363Z,14.77
2022-12-08T06:23:20.162Z,15.60
2022-12-08T06:25:23.377Z,13.73
2022-12-08T06:27:26.294Z,13.93
2022-12-08T06:29:29.084Z,14.27
2022-12-08T06:31:31.989Z,14.20
2022-12-08T06:33:34.888Z,15.63
2022-12-08T06:35:38.222Z,14.85
2022-12-08T06:37:42.314Z,12.35
2022-12-08T06:39:45.193Z,14.02
2022-12-08T06:42:05.563Z,15.20
2022-12-08T06:44:08.363Z,15.80
2022-12-08T06:46:13.309Z,13.63
2022-12-08T06:48:16.183Z,13.57
2022-12-08T06:50:19.080Z,15.82
2022-12-08T06:52:21.975Z,13.38
2022-12-08T06:54:26.219Z,11.63
2022-12-08T06:56:30.062Z,14.25
2022-12-08T06:58:33.374Z,13.73
2022-12-08T07:00:36.198Z,16.85
2022-12-08T07:02:39.733Z,14.63
2022-12-08T07:04:42.563Z,12.98
2022-12-08T07:06:45.341Z,15.13
2022-12-08T07:08:48.144Z,13.68
2022-12-08T07:10:52.461Z,12.88
2022-12-08T07:12:55.264Z,12.30
2022-12-08T07:14:58.242Z,13.27
2022-12-08T07:17:02.074Z,11.23
2022-12-08T07:19:04.974Z,17.58
2022-12-08T07:21:09.617Z,16.65
2022-12-08T07:23:12.426Z,13.52
2022-12-08T07:25:15.377Z,12.68
2022-12-08T07:27:19.547Z,13.98
2022-12-08T07:29:26.188Z,11.90
2022-12-08T07:31:29.567Z,11.90
2022-12-08T07:33:32.859Z,15.00
2022-12-08T07:35:35.636Z,12.20
2022-12-08T07:37:39.050Z,11.45
2022-12-08T07:39:41.839Z,12.07
2022-12-08T07:41:44.616Z,13.65
2022-12-08T07:43:49.366Z,11.70
2022-12-08T07:45:52.344Z,12.63
2022-12-08T07:47:55.175Z,12.07
2022-12-08T07:49:57.915Z,11.43
2022-12-08T07:52:00.699Z,13.90
2022-12-08T07:54:03.470Z,11.65
2022-12-08T07:56:07.591Z,11.30
2022-12-08T07:58:10.908Z,12.23
2022-12-08T08:00:16.519Z,14.45
2022-12-08T08:02:25.400Z,10.15
2022-12-08T08:04:28.962Z,11.52
2022-12-08T08:06:32.335Z,12.05
2022-12-08T08:08:35.182Z,10.80
2022-12-08T08:10:38.017Z,13.25
2022-12-08T08:12:40.846Z,14.85
2022-12-08T08:14:44.086Z,12.02
2022-12-08T08:16:48.380Z,15.50
2022-12-08T08:18:52.464Z,12.70
2022-12-08T08:20:55.209Z,12.80
2022-12-08T08:22:57.975Z,11.75
2022-12-08T08:25:00.850Z,14.00
2022-12-08T08:27:03.817Z,14.35
2022-12-08T08:29:06.607Z,14.02
2022-12-08T08:31:09.466Z,14.32
2022-12-08T08:33:14.096Z,13.50
2022-12-08T08:35:17.239Z,13.52
2022-12-08T08:37:20.275Z,14.70
2022-12-08T08:39:23.274Z,16.42
2022-12-08T08:41:26.123Z,14.10
2022-12-08T08:43:37.810Z,15.52
2022-12-08T08:45:40.800Z,15.70
2022-12-08T08:47:43.602Z,13.20
2022-12-08T08:49:48.151Z,13.32
2022-12-08T08:51:50.928Z,15.88
2022-12-08T08:53:53.738Z,14.20
2022-12-08T08:55:56.595Z,15.48
2022-12-08T08:57:59.416Z,15.35
2022-12-08T09:00:02.519Z,18.05
2022-12-08T09:02:05.631Z,17.27
2022-12-08T09:04:08.519Z,15.63
2022-12-08T09:06:12.930Z,13.25
2022-12-08T09:08:15.924Z,16.60
2022-12-08T09:10:18.818Z,15.98
2022-12-08T09:12:22.090Z,13.90
2022-12-08T09:14:25.408Z,17.58
2022-12-08T09:16:28.328Z,15.05
2022-12-08T09:18:31.550Z,16.00
2022-12-08T09:20:34.924Z,18.33
2022-12-08T09:22:39.101Z,14.27
2022-12-08T09:24:41.869Z,15.07
2022-12-08T09:26:45.433Z,15.77
2022-12-08T09:28:48.224Z,15.95
2022-12-08T09:30:52.773Z,17.67
2022-12-08T09:32:55.676Z,19.42
2022-12-08T09:34:59.594Z,15.87
2022-12-08T09:37:02.420Z,19.45
2022-12-08T09:39:06.905Z,19.02
2022-12-08T09:41:17.099Z,15.48
2022-12-08T09:43:43.357Z,16.67
2022-12-08T09:45:46.936Z,15.00
2022-12-08T09:47:59.622Z,17.52
2022-12-08T09:50:08.518Z,14.75
2022-12-08T09:52:21.150Z,18.15
2022-12-08T09:54:32.822Z,16.40
2022-12-08T09:56:38.122Z,16.88
2022-12-08T09:58:51.922Z,16.52
2022-12-08T10:00:54.749Z,16.58
2022-12-08T10:02:57.911Z,16.88
2022-12-08T10:05:00.896Z,15.07
2022-12-08T10:07:13.642Z,14.95
2022-12-08T10:09:30.187Z,16.05
2022-12-08T10:11:42.010Z,17.90
2022-12-08T10:13:56.008Z,15.50
2022-12-08T10:16:16.707Z,15.13
2022-12-08T10:18:28.380Z,15.60
2022-12-08T10:20:38.291Z,18.60
2022-12-08T10:22:44.700Z,16.52
2022-12-08T10:24:56.676Z,17.23
2022-12-08T10:27:00.078Z,16.13
2022-12-08T10:29:04.315Z,15.52
2022-12-08T10:31:07.203Z,14.82
2022-12-08T10:33:15.215Z,14.25
2022-12-08T10:35:20.261Z,15.52
2022-12-08T10:37:23.324Z,15.40
2022-12-08T10:39:35.707Z,13.75
2022-12-08T10:41:41.136Z,15.65
2022-12-08T10:43:47.249Z,15.80
2022-12-08T10:45:50.207Z,12.15
2022-12-08T10:48:04.465Z,15.23
2022-12-08T10:50:19.507Z,15.93
2022-12-08T10:52:24.137Z,15.05
2022-12-08T10:54:30.552Z,16.83
2022-12-08T10:56:34.175Z,14.48
2022-12-08T10:58:40.842Z,12.73
2022-12-08T11:00:43.867Z,14.90
2022-12-08T11:02:56.092Z,16.63
2022-12-08T11:05:00.403Z,15.68
2022-12-08T11:07:05.726Z,12.60
2022-12-08T11:09:25.694Z,14.43
2022-12-08T11:11:40.325Z,14.05
2022-12-08T11:13:44.534Z,13.48
2022-12-08T11:15:47.905Z,14.13
2022-12-08T11:18:01.291Z,13.38
2022-12-08T11:20:20.426Z,15.32
2022-12-08T11:22:26.132Z,13.55
2022-12-08T11:24:33.495Z,15.00
2022-12-08T11:26:40.235Z,14.18
2022-12-08T11:28:44.478Z,11.88
2022-12-08T11:30:54.321Z,15.45
2022-12-08T11:33:00.018Z,14.20
2022-12-08T11:35:05.747Z,13.95
2022-12-08T11:37:17.030Z,14.25
2022-12-08T11:39:20.142Z,13.43
2022-12-08T11:41:25.094Z,13.60
2022-12-08T11:45:36.613Z,12.30
2022-12-08T11:47:50.104Z,11.73
2022-12-08T11:50:05.276Z,15.27
2022-12-08T11:52:18.391Z,13.68
2022-12-08T11:54:25.078Z,12.38
2022-12-08T11:56:34.506Z,11.35
2022-12-08T11:58:42.147Z,14.15
2022-12-08T12:00:46.475Z,12.32
2022-12-08T12:02:56.078Z,12.38
2022-12-08T12:05:06.031Z,12.70
2022-12-08T12:07:48.113Z,12.68
2022-12-08T12:10:07.483Z,14.38
2022-12-08T12:12:19.403Z,13.10
2022-12-08T12:14:43.269Z,12.82
2022-12-08T12:17:00.988Z,11.88
2022-12-08T12:19:11.047Z,11.43
2022-12-08T12:21:19.280Z,11.77
2022-12-08T12:23:25.442Z,12.43
2022-12-08T12:25:29.005Z,13.65
2022-12-08T12:27:39.324Z,11.52
2022-12-08T12:29:55.276Z,10.95
2022-12-08T12:32:03.195Z,11.73
2022-12-08T12:34:09.460Z,12.82
2022-12-08T12:36:14.087Z,11.70
2022-12-08T12:38:42.584Z,10.88
2022-12-08T12:40:45.490Z,13.38
2022-12-08T12:43:09.940Z,11.63
2022-12-08T12:45:30.768Z,11.80
2022-12-08T12:47:55.624Z,11.90
2022-12-08T12:50:37.015Z,11.02
2022-12-08T12:52:45.978Z,10.43
2022-12-08T12:55:40.241Z,13.27
2022-12-08T12:57:52.434Z,12.77
2022-12-08T13:00:09.835Z,10.95
2022-12-08T13:02:25.632Z,10.88
2022-12-08T13:04:35.035Z,10.18
2022-12-08T13:06:42.233Z,11.55
2022-12-08T13:08:52.839Z,9.18
2022-12-08T13:11:01.751Z,10.13
2022-12-08T13:13:17.331Z,11.55
2022-12-08T13:15:21.814Z,14.00
2022-12-08T13:17:28.291Z,11.55
2022-12-08T13:19:34.238Z,11.80
2022-12-08T13:21:39.120Z,12.38
2022-12-08T13:26:09.423Z,9.90
2022-12-08T13:28:20.882Z,13.90
2022-12-08T13:30:43.991Z,10.85
2022-12-08T13:35:20.701Z,12.02
2022-12-08T13:37:27.319Z,11.32
2022-12-08T13:39:36.290Z,10.13
2022-12-08T13:41:44.398Z,13.40
2022-12-08T13:44:30.954Z,10.45
2022-12-08T13:47:03.216Z,11.85
2022-12-08T13:58:38.071Z,9.63
2022-12-08T14:00:42.307Z,10.45
2022-12-08T14:02:48.599Z,11.85
2022-12-08T14:07:15.710Z,10.32
2022-12-08T14:09:21.042Z,11.35
2022-12-08T14:11:35.214Z,11.40
2022-12-08T14:13:38.233Z,11.25
2022-12-08T14:15:42.469Z,10.60
2022-12-08T14:17:52.210Z,12.48
2022-12-08T14:19:57.922Z,13.25
2022-12-08T14:22:03.038Z,10.25
2022-12-08T14:24:06.116Z,12.43
2022-12-08T14:26:12.305Z,16.60
2022-12-08T14:28:15.111Z,12.13
2022-12-08T14:30:22.374Z,11.90
2022-12-08T14:32:32.537Z,12.20
2022-12-08T14:34:40.473Z,11.13
2022-12-08T14:36:43.403Z,12.30
2022-12-08T14:38:46.296Z,12.73
2022-12-08T14:40:50.416Z,10.98
2022-12-08T14:42:55.479Z,12.35
2022-12-08T14:45:01.912Z,12.65
2022-12-08T14:47:06.358Z,12.32
2022-12-08T14:49:32.747Z,11.45
2022-12-08T14:51:36.796Z,11.88
2022-12-08T14:53:42.411Z,10.82
2022-12-08T14:55:47.922Z,15.10
2022-12-08T14:57:50.839Z,12.80
2022-12-08T14:59:53.835Z,13.27
2022-12-08T15:02:13.591Z,14.00
2022-12-08T15:04:24.111Z,14.20
2022-12-08T15:06:27.092Z,11.68
2022-12-08T15:08:30.638Z,12.57
2022-12-08T15:10:37.988Z,13.15
2022-12-08T15:12:40.796Z,12.88
2022-12-08T15:14:55.345Z,10.88
2022-12-08T15:16:58.320Z,11.60
2022-12-08T15:19:19.632Z,11.38
2022-12-08T15:21:30.992Z,9.73
2022-12-08T15:23:44.820Z,12.75
2022-12-08T15:25:47.761Z,11.35
2022-12-08T15:27:52.955Z,13.40
2022-12-08T15:29:55.801Z,10.57
2022-12-08T15:32:01.841Z,12.27
2022-12-08T15:34:04.669Z,11.50
2022-12-08T15:36:10.298Z,12.57
2022-12-08T15:38:21.535Z,12.40
2022-12-08T15:40:26.971Z,9.77
2022-12-08T15:42:29.741Z,9.23
2022-12-08T15:44:32.915Z,10.05
2022-12-08T15:46:35.949Z,10.88
2022-12-08T15:48:39.161Z,10.60
2022-12-08T15:50:42.033Z,10.43
2022-12-08T15:52:46.379Z,13.07
2022-12-08T15:54:50.028Z,12.35
2022-12-08T15:57:18.583Z,14.35
2022-12-08T15:59:22.266Z,35.42
2022-12-08T16:01:25.743Z,19.00
2022-12-08T16:06:26.917Z,12.23
2022-12-08T16:08:44.495Z,12.50
2022-12-08T16:11:28.872Z,12.00
2022-12-08T16:15:53.593Z,12.88
2022-12-08T16:17:58.747Z,14.60
2022-12-08T16:20:02.161Z,13.75
2022-12-08T16:22:44.948Z,11.48
2022-12-08T16:24:29.283Z,12.98
2022-12-08T16:28:55.624Z,11.88
2022-12-08T16:30:58.693Z,12.57
2022-12-08T16:33:01.579Z,13.88
2022-12-08T16:35:05.539Z,14.48
2022-12-08T16:37:09.797Z,13.52
2022-12-08T16:39:14.178Z,13.38
2022-12-08T16:41:36.696Z,13.77
2022-12-08T16:43:39.660Z,12.02
2022-12-08T16:45:45.173Z,12.60
2022-12-08T16:47:49.946Z,14.77
2022-12-08T16:49:52.717Z,14.57
2022-12-08T16:51:55.543Z,15.70
2022-12-08T16:53:58.652Z,15.32
2022-12-08T16:56:01.592Z,15.82
2022-12-08T16:58:06.021Z,14.13
2022-12-08T17:00:12.388Z,16.08
2022-12-08T17:02:16.658Z,15.93
2022-12-08T17:04:34.917Z,17.67
2022-12-08T17:06:37.801Z,19.55
2022-12-08T17:08:41.587Z,18.30
2022-12-08T17:10:44.430Z,17.70
2022-12-08T17:12:47.543Z,17.88
2022-12-08T17:14:51.675Z,15.88
2022-12-08T17:16:54.553Z,17.38
2022-12-08T17:18:59.176Z,16.42
2022-12-08T17:21:02.022Z,14.75
2022-12-08T17:23:04.780Z,15.85
2022-12-08T17:25:08.731Z,15.07
2022-12-08T17:27:11.555Z,15.73
2022-12-08T17:29:14.451Z,15.73
2022-12-08T17:31:18.962Z,16.13
2022-12-08T17:33:26.768Z,17.58
2022-12-08T17:35:29.859Z,15.02
2022-12-08T17:37:32.779Z,15.00
2022-12-08T17:39:35.627Z,15.80
2022-12-08T17:41:38.612Z,14.32
2022-12-08T17:43:41.496Z,19.58
2022-12-08T17:45:45.734Z,19.20
2022-12-08T17:47:49.930Z,15.60
2022-12-08T17:49:52.978Z,15.30
2022-12-08T17:51:57.475Z,18.35
2022-12-08T17:54:00.254Z,16.60
2022-12-08T17:56:03.018Z,18.95
2022-12-08T17:58:06.250Z,17.92
2022-12-08T18:00:12.054Z,18.77
2022-12-08T18:02:15.022Z,17.48
2022-12-08T18:04:19.307Z,13.95
2022-12-08T18:06:24.624Z,19.60
2022-12-08T18:08:29.811Z,16.30
2022-12-08T18:10:32.750Z,19.55
2022-12-08T18:12:35.891Z,17.80
2022-12-08T18:14:38.746Z,19.13
2022-12-08T18:16:44.545Z,18.60
2022-12-08T18:18:47.756Z,18.85
2022-12-08T18:20:51.999Z,17.90
2022-12-08T18:22:54.804Z,19.83
2022-12-08T18:24:57.595Z,18.55
2022-12-08T18:27:00.525Z,19.23
2022-12-08T18:29:03.702Z,19.08
2022-12-08T18:31:09.780Z,15.68
2022-12-08T18:33:12.680Z,17.15
2022-12-08T18:35:15.554Z,15.27
2022-12-08T18:37:20.086Z,17.25
2022-12-08T18:39:25.436Z,15.48
2022-12-08T18:41:28.297Z,17.90
2022-12-08T18:43:31.103Z,17.73
2022-12-08T18:45:36.641Z,18.40
2022-12-08T18:47:41.122Z,16.48
2022-12-08T18:49:44.212Z,16.73
2022-12-08T18:51:47.401Z,17.80
2022-12-08T18:53:52.766Z,16.40
2022-12-08T18:55:55.685Z,19.20
2022-12-08T18:57:58.431Z,17.00
2022-12-08T19:00:02.524Z,19.00
2022-12-08T19:02:06.170Z,20.65
2022-12-08T19:06:33.014Z,17.85
2022-12-08T19:08:35.933Z,16.70
2022-12-08T19:10:40.147Z,18.73
2022-12-08T19:12:43.120Z,17.92
2022-12-08T19:14:45.963Z,18.45
2022-12-08T19:16:48.815Z,19.75
2022-12-08T19:18:51.639Z,21.15
2022-12-08T19:20:56.853Z,23.38
2022-12-08T19:22:59.842Z,21.90
2022-12-08T19:25:03.174Z,24.60
2022-12-08T19:27:07.612Z,23.75
2022-12-08T19:29:10.828Z,17.67
2022-12-08T19:31:13.866Z,21.58
2022-12-08T19:33:17.536Z,24.00
2022-12-08T19:35:20.355Z,19.52
2022-12-08T19:37:23.302Z,23.08
2022-12-08T19:39:44.302Z,20.30
2022-12-08T19:42:10.716Z,24.67
2022-12-08T19:44:39.391Z,24.60
2022-12-08T19:46:42.322Z,25.13
2022-12-08T19:48:45.807Z,25.40
2022-12-08T19:50:48.679Z,23.88
2022-12-08T19:52:51.464Z,22.35
2022-12-08T19:54:54.234Z,21.80
2022-12-08T19:56:59.969Z,21.45
2022-12-08T19:59:02.689Z,20.65
2022-12-08T20:01:07.050Z,19.77
2022-12-08T20:03:10.136Z,18.55
2022-12-08T20:05:13.904Z,18.38
2022-12-08T20:07:16.867Z,15.00
2022-12-08T20:09:20.213Z,15.95
2022-12-08T20:11:23.137Z,17.27
2022-12-08T20:13:45.671Z,17.63
2022-12-08T20:15:48.658Z,16.85
2022-12-08T20:17:53.056Z,17.52
2022-12-08T20:19:55.979Z,16.27
2022-12-08T20:21:58.957Z,18.73
2022-12-08T20:24:02.025Z,18.83
2022-12-08T20:26:06.215Z,16.50
2022-12-08T20:28:10.926Z,17.02
2022-12-08T20:30:17.254Z,17.00
2022-12-08T20:32:20.496Z,17.73
2022-12-08T20:34:24.763Z,17.23
2022-12-08T20:36:28.379Z,16.80
2022-12-08T20:38:32.110Z,18.00
2022-12-08T20:40:35.099Z,19.58
2022-12-08T20:42:37.999Z,22.48
2022-12-08T20:44:44.174Z,16.73
2022-12-08T20:46:49.636Z,21.17
2022-12-08T20:48:52.756Z,19.85
2022-12-08T20:50:56.999Z,15.85
2022-12-08T20:53:00.487Z,18.00
2022-12-08T20:55:03.333Z,18.67
2022-12-08T20:57:06.640Z,16.45
2022-12-08T20:59:14.541Z,17.50
2022-12-08T21:01:19.958Z,18.05
2022-12-08T21:03:23.219Z,20.02
2022-12-08T21:05:26.391Z,18.85
2022-12-08T21:07:30.846Z,16.77
2022-12-08T21:09:33.896Z,20.98
2022-12-08T21:11:37.143Z,19.73
2022-12-08T21:13:40.505Z,17.20
2022-12-08T21:15:46.703Z,17.73
2022-12-08T21:17:49.839Z,17.98
2022-12-08T21:19:52.836Z,16.67
2022-12-08T21:21:55.786Z,17.98
2022-12-08T21:24:01.041Z,13.60
2022-12-08T21:26:10.486Z,17.90
2022-12-08T21:28:13.905Z,20.73
2022-12-08T21:30:17.175Z,16.98
2022-12-08T21:32:22.435Z,16.67
2022-12-08T21:34:31.466Z,19.73
2022-12-08T21:36:34.425Z,17.60
2022-12-08T21:38:38.491Z,15.20
2022-12-08T21:40:42.897Z,18.95
2022-12-08T21:42:45.076Z,18.05
2022-12-08T21:44:48.017Z,17.92
2022-12-08T21:46:51.243Z,15.90
2022-12-08T21:48:54.308Z,17.52
2022-12-08T21:50:57.796Z,17.55
2022-12-08T21:53:01.197Z,19.58
2022-12-08T21:55:04.150Z,20.83
2022-12-08T21:57:08.371Z,18.92
2022-12-08T21:59:11.522Z,16.27
2022-12-08T22:01:14.856Z,18.05
2022-12-08T22:03:17.947Z,22.85
2022-12-08T22:05:21.040Z,17.02
2022-12-08T22:07:24.426Z,17.10
2022-12-08T22:09:27.629Z,17.30
2022-12-08T22:11:30.928Z,18.80
2022-12-08T22:13:36.639Z,15.68
2022-12-08T22:15:39.634Z,16.73
2022-12-08T22:17:44.011Z,19.58
2022-12-08T22:19:47.172Z,19.67
2022-12-08T22:21:49.975Z,18.00
2022-12-08T22:23:52.774Z,17.08
2022-12-08T22:25:59.217Z,20.90
2022-12-08T22:28:02.018Z,17.17
2022-12-08T22:30:08.120Z,16.70
2022-12-08T22:32:11.288Z,17.75
2022-12-08T22:34:14.817Z,21.00
2022-12-08T22:36:20.287Z,18.40
2022-12-08T22:38:23.045Z,22.77
2022-12-08T22:40:25.736Z,20.10
2022-12-08T22:42:28.662Z,19.58
2022-12-08T22:44:31.720Z,13.85
2022-12-08T22:46:36.277Z,20.95
2022-12-08T22:48:39.216Z,19.23
2022-12-08T22:50:42.394Z,17.92
2022-12-08T22:52:45.260Z,17.75
2022-12-08T22:54:48.106Z,17.25
2022-12-08T22:56:51.053Z,16.13
2022-12-08T22:58:53.871Z,18.05
2022-12-08T23:00:56.776Z,20.10
2022-12-08T23:03:01.089Z,15.68
2022-12-08T23:05:04.671Z,19.48
2022-12-08T23:07:07.928Z,20.30
2022-12-08T23:09:10.803Z,19.25
2022-12-08T23:11:14.403Z,17.83
2022-12-08T23:13:17.385Z,17.83
2022-12-08T23:15:20.433Z,17.17
2022-12-08T23:17:23.367Z,18.02
2022-12-08T23:19:27.681Z,18.08
2022-12-08T23:21:30.616Z,17.25
2022-12-08T23:23:33.462Z,18.73
2022-12-08T23:25:36.489Z,17.13
2022-12-08T23:27:39.565Z,17.38
2022-12-08T23:29:42.383Z,16.25
2022-12-08T23:31:45.366Z,20.52
2022-12-08T23:33:48.755Z,19.77
2022-12-08T23:35:58.785Z,17.17
2022-12-08T23:38:01.813Z,17.27
2022-12-08T23:40:06.187Z,17.88
2022-12-08T23:42:09.574Z,18.70
2022-12-08T23:44:15.470Z,16.55
2022-12-08T23:46:21.104Z,19.65
2022-12-08T23:48:24.406Z,16.98
2022-12-08T23:50:27.186Z,17.15
2022-12-08T23:52:31.328Z,19.83
2022-12-08T23:54:35.889Z,18.65
2022-12-08T23:56:38.768Z,16.23
2022-12-08T23:58:42.665Z,18.42
